createdAt,value
2022-12-17T00:01:29.539Z,100671.28
2022-12-17T00:03:50.957Z,100659.09
2022-12-17T00:06:11.848Z,100662.13
2022-12-17T00:08:32.132Z,100668.13
2022-12-17T00:10:54.797Z,100664.38
2022-12-17T00:13:15.853Z,100665.13
2022-12-17T00:15:36.475Z,100659.47
2022-12-17T00:17:56.895Z,100660.09
2022-12-17T00:20:17.417Z,100658.09
2022-12-17T00:22:38.001Z,100662.25
2022-12-17T00:24:58.692Z,100666.13
2022-12-17T00:27:19.266Z,100672.00
2022-12-17T00:29:39.993Z,100666.97
2022-12-17T00:32:00.502Z,100676.28
2022-12-17T00:34:20.962Z,100676.16
2022-12-17T00:36:41.652Z,100694.75
2022-12-17T00:39:04.327Z,100701.28
2022-12-17T00:41:24.838Z,100703.06
2022-12-17T00:43:45.394Z,100707.56
2022-12-17T00:46:06.217Z,100709.34
2022-12-17T00:48:27.863Z,100712.72
2022-12-17T00:50:48.383Z,100715.34
2022-12-17T00:53:11.331Z,100708.31
2022-12-17T00:55:31.986Z,100702.91
2022-12-17T00:57:52.245Z,100712.06
2022-12-17T01:00:12.537Z,100704.03
2022-12-17T01:02:33.224Z,100702.28
2022-12-17T01:04:53.527Z,100716.59
2022-12-17T01:07:14.603Z,100727.41
2022-12-17T01:09:34.842Z,100722.50
2022-12-17T01:11:56.565Z,100728.03
2022-12-17T01:14:17.138Z,100729.78
2022-12-17T01:16:37.626Z,100714.09
2022-12-17T01:18:59.060Z,100708.31
2022-12-17T01:21:19.578Z,100701.66
2022-12-17T01:23:39.889Z,100705.03
2022-12-17T01:26:00.267Z,100714.34
2022-12-17T01:28:20.792Z,100705.66
2022-12-17T01:30:41.400Z,100706.53
2022-12-17T01:33:02.116Z,100712.34
2022-12-17T01:35:33.043Z,100710.84
2022-12-17T01:37:53.478Z,100713.22
2022-12-17T01:40:14.276Z,100719.47
2022-12-17T01:42:34.921Z,100724.63
2022-12-17T01:45:05.833Z,100731.28
2022-12-17T01:47:28.247Z,100732.44
2022-12-17T01:49:48.619Z,100728.75
2022-12-17T01:52:10.816Z,100731.41
2022-12-17T01:54:32.673Z,100741.94
2022-12-17T01:56:56.130Z,100743.97
2022-12-17T01:59:17.569Z,100749.72
2022-12-17T02:01:38.574Z,100752.75
2022-12-17T02:03:59.363Z,100751.13
2022-12-17T02:06:20.001Z,100756.13
2022-12-17T02:08:59.731Z,100754.34
2022-12-17T02:11:37.532Z,100750.00
2022-12-17T02:14:01.971Z,100747.59
2022-12-17T02:16:36.705Z,100748.22
2022-12-17T02:19:08.702Z,100750.97
2022-12-17T02:21:30.972Z,100748.22
2022-12-17T02:24:09.457Z,100751.75
2022-12-17T02:27:00.401Z,100742.44
2022-12-17T02:29:23.656Z,100737.16
2022-12-17T02:31:46.621Z,100737.91
2022-12-17T02:34:07.570Z,100734.03
2022-12-17T02:36:29.086Z,100728.75
2022-12-17T02:38:50.846Z,100741.44
2022-12-17T02:41:12.466Z,100737.91
2022-12-17T02:43:33.342Z,100741.16
2022-12-17T02:45:54.351Z,100739.13
2022-12-17T02:48:15.707Z,100730.88
2022-12-17T02:50:37.347Z,100736.28
2022-12-17T02:53:05.621Z,100740.16
2022-12-17T02:55:32.167Z,100732.91
2022-12-17T02:57:54.024Z,100730.25
2022-12-17T03:00:14.522Z,100735.66
2022-12-17T03:02:35.331Z,100738.16
2022-12-17T03:04:56.022Z,100741.78
2022-12-17T03:07:16.331Z,100737.38
2022-12-17T03:09:36.868Z,100734.00
2022-12-17T03:11:57.491Z,100726.47
2022-12-17T03:14:18.145Z,100739.28
2022-12-17T03:16:38.941Z,100729.47
2022-12-17T03:18:59.458Z,100733.63
2022-12-17T03:21:20.121Z,100740.13
2022-12-17T03:23:40.548Z,100740.13
2022-12-17T03:26:01.136Z,100738.09
2022-12-17T03:28:28.030Z,100746.78
2022-12-17T03:30:49.277Z,100750.94
2022-12-17T03:33:09.765Z,100743.41
2022-12-17T03:35:30.461Z,100745.16
2022-12-17T03:37:51.173Z,100746.91
2022-12-17T03:40:11.775Z,100757.22
2022-12-17T03:42:32.268Z,100756.69
2022-12-17T03:44:56.686Z,100739.88
2022-12-17T03:47:16.896Z,100744.91
2022-12-17T03:49:38.618Z,100748.28
2022-12-17T03:51:59.244Z,100754.66
2022-12-17T03:54:19.824Z,100742.00
2022-12-17T03:56:40.243Z,100748.63
2022-12-17T03:59:00.642Z,100755.28
2022-12-17T04:01:21.462Z,100757.78
2022-12-17T04:03:41.969Z,100745.59
2022-12-17T04:06:02.638Z,100740.59
2022-12-17T04:08:23.258Z,100731.41
2022-12-17T04:10:43.711Z,100742.84
2022-12-17T04:13:06.208Z,100745.59
2022-12-17T04:15:26.943Z,100751.09
2022-12-17T04:17:47.551Z,100756.59
2022-12-17T04:20:08.180Z,100766.03
2022-12-17T04:22:28.637Z,100762.38
2022-12-17T04:24:48.969Z,100772.28
2022-12-17T04:27:11.817Z,100777.28
2022-12-17T04:29:32.532Z,100780.81
2022-12-17T04:31:54.117Z,100790.59
2022-12-17T04:34:14.673Z,100798.00
2022-12-17T04:36:35.421Z,100815.09
2022-12-17T04:38:55.663Z,100814.06
2022-12-17T04:41:16.308Z,100822.34
2022-12-17T04:43:37.197Z,100822.81
2022-12-17T04:45:57.836Z,100819.69
2022-12-17T04:48:23.235Z,100821.81
2022-12-17T04:50:43.528Z,100827.84
2022-12-17T04:53:03.657Z,100832.25
2022-12-17T04:55:24.643Z,100846.44
2022-12-17T04:57:45.120Z,100862.97
2022-12-17T05:00:05.595Z,100853.66
2022-12-17T05:02:26.010Z,100867.97
2022-12-17T05:04:46.659Z,100867.72
2022-12-17T05:07:07.246Z,100871.22
2022-12-17T05:09:27.716Z,100878.75
2022-12-17T05:11:48.297Z,100881.56
2022-12-17T05:14:09.196Z,100877.16
2022-12-17T05:16:31.440Z,100888.06
2022-12-17T05:18:52.124Z,100879.16
2022-12-17T05:21:12.501Z,100879.78
2022-12-17T05:23:33.176Z,100879.78
2022-12-17T05:25:53.582Z,100872.84
2022-12-17T05:28:13.818Z,100891.59
2022-12-17T05:30:34.068Z,100893.69
2022-12-17T05:32:54.697Z,100887.28
2022-12-17T05:35:15.120Z,100884.53
2022-12-17T05:37:35.617Z,100878.91
2022-12-17T05:39:55.938Z,100879.50
2022-12-17T05:42:16.219Z,100880.53
2022-12-17T05:44:37.892Z,100881.25
2022-12-17T05:47:09.067Z,100874.75
2022-12-17T05:49:29.493Z,100869.47
2022-12-17T05:51:50.095Z,100872.25
2022-12-17T05:54:11.436Z,100877.47
2022-12-17T05:56:31.691Z,100885.75
2022-12-17T05:58:52.213Z,100879.97
2022-12-17T06:01:22.041Z,100883.50
2022-12-17T06:03:43.130Z,100883.34
2022-12-17T06:06:03.918Z,100885.75
2022-12-17T06:08:26.410Z,100875.16
2022-12-17T06:10:49.106Z,100879.91
2022-12-17T06:13:15.865Z,100878.28
2022-12-17T06:15:36.098Z,100876.66
2022-12-17T06:17:56.581Z,100879.50
2022-12-17T06:20:17.239Z,100893.47
2022-12-17T06:22:38.765Z,100891.44
2022-12-17T06:24:59.076Z,100891.16
2022-12-17T06:27:19.161Z,100893.19
2022-12-17T06:29:39.640Z,100914.94
2022-12-17T06:32:00.109Z,100925.25
2022-12-17T06:34:20.422Z,100927.88
2022-12-17T06:36:41.200Z,100931.34
2022-12-17T06:39:02.931Z,100939.56
2022-12-17T06:41:24.198Z,100940.78
2022-12-17T06:43:44.743Z,100952.69
2022-12-17T06:46:04.982Z,100958.47
2022-12-17T06:48:27.725Z,100967.16
2022-12-17T06:50:47.984Z,100956.69
2022-12-17T06:53:37.871Z,100971.63
2022-12-17T06:56:00.924Z,100964.38
2022-12-17T06:58:21.452Z,100983.25
2022-12-17T07:00:41.820Z,100976.91
2022-12-17T07:03:02.447Z,100975.88
2022-12-17T07:05:22.964Z,100977.38
2022-12-17T07:07:44.717Z,100983.25
2022-12-17T07:10:09.309Z,100983.84
2022-12-17T07:12:34.080Z,100974.44
2022-12-17T07:14:54.417Z,100967.19
2022-12-17T07:17:17.290Z,100961.28
2022-12-17T07:19:37.803Z,100967.66
2022-12-17T07:21:58.336Z,100967.50
2022-12-17T07:24:18.985Z,100976.50
2022-12-17T07:26:39.273Z,100982.38
2022-12-17T07:28:59.590Z,100989.75
2022-12-17T07:31:21.150Z,100998.03
2022-12-17T07:33:41.800Z,100995.09
2022-12-17T07:36:02.324Z,100996.13
2022-12-17T07:38:23.603Z,101002.78
2022-12-17T07:40:43.962Z,101000.38
2022-12-17T07:43:04.303Z,101006.00
2022-12-17T07:45:25.501Z,101007.50
2022-12-17T07:47:46.001Z,101013.97
2022-12-17T07:50:06.468Z,101014.97
2022-12-17T07:52:28.733Z,101012.94
2022-12-17T07:54:49.983Z,101015.50
2022-12-17T07:57:10.568Z,101012.84
2022-12-17T07:59:31.157Z,101026.13
2022-12-17T08:01:51.882Z,101032.03
2022-12-17T08:04:12.748Z,101030.22
2022-12-17T08:06:33.107Z,101033.22
2022-12-17T08:08:54.011Z,101040.59
2022-12-17T08:11:14.517Z,101038.84
2022-12-17T08:13:35.410Z,101037.94
2022-12-17T08:16:03.898Z,101047.53
2022-12-17T08:18:26.740Z,101046.94
2022-12-17T08:20:47.553Z,101044.28
2022-12-17T08:23:07.908Z,101042.94
2022-12-17T08:25:28.507Z,101050.78
2022-12-17T08:27:49.111Z,101050.03
2022-12-17T08:30:09.838Z,101055.34
2022-12-17T08:32:30.210Z,101066.25
2022-12-17T08:34:51.582Z,101064.88
2022-12-17T08:37:18.420Z,101070.91
2022-12-17T08:39:38.742Z,101069.44
2022-12-17T08:42:04.114Z,101070.75
2022-12-17T08:44:25.267Z,101074.22
2022-12-17T08:46:45.583Z,101078.19
2022-12-17T08:49:06.034Z,101076.72
2022-12-17T08:51:26.429Z,101087.00
2022-12-17T08:53:46.987Z,101086.56
2022-12-17T08:56:07.955Z,101080.06
2022-12-17T08:58:28.748Z,101083.19
2022-12-17T09:00:49.012Z,101089.69
2022-12-17T09:03:15.747Z,101090.88
2022-12-17T09:05:36.081Z,101095.03
2022-12-17T09:07:56.644Z,101090.13
2022-12-17T09:10:16.992Z,101092.22
2022-12-17T09:12:37.228Z,101092.38
2022-12-17T09:14:57.507Z,101102.06
2022-12-17T09:17:17.840Z,101103.69
2022-12-17T09:19:38.563Z,101108.03
2022-12-17T09:21:59.122Z,101119.69
2022-12-17T09:24:19.641Z,101117.44
2022-12-17T09:26:40.050Z,101128.53
2022-12-17T09:29:01.118Z,101134.59
2022-12-17T09:31:21.804Z,101128.53
2022-12-17T09:33:43.336Z,101121.00
2022-12-17T09:36:03.865Z,101126.38
2022-12-17T09:38:25.456Z,101129.50
2022-12-17T09:40:46.020Z,101132.31
2022-12-17T09:43:25.307Z,101119.91
2022-12-17T09:46:15.738Z,101123.16
2022-12-17T09:49:13.361Z,101123.31
2022-12-17T09:51:43.304Z,101124.63
2022-12-17T09:54:05.552Z,101119.34
2022-12-17T09:56:30.424Z,101120.81
2022-12-17T09:58:55.324Z,101123.16
2022-12-17T10:01:17.765Z,101124.38
2022-12-17T10:03:41.765Z,101125.25
2022-12-17T10:06:05.372Z,101140.56
2022-12-17T10:08:32.522Z,101132.31
2022-12-17T10:10:52.884Z,101143.97
2022-12-17T10:13:14.401Z,101146.50
2022-12-17T10:15:35.745Z,101145.44
2022-12-17T10:18:02.008Z,101153.25
2022-12-17T10:20:33.121Z,101159.03
2022-12-17T10:23:05.830Z,101156.97
2022-12-17T10:25:41.083Z,101163.88
2022-12-17T10:28:08.332Z,101155.75
2022-12-17T10:30:35.465Z,101155.16
2022-12-17T10:32:57.128Z,101160.50
2022-12-17T10:35:18.178Z,101164.47
2022-12-17T10:37:39.945Z,101166.22
2022-12-17T10:40:01.363Z,101173.31
2022-12-17T10:42:23.377Z,101177.28
2022-12-17T10:44:59.851Z,101190.44
2022-12-17T10:47:27.790Z,101181.88
2022-12-17T10:49:48.334Z,101181.31
2022-12-17T10:52:40.309Z,101179.66
2022-12-17T10:55:12.932Z,101178.00
2022-12-17T10:57:46.483Z,101186.13
2022-12-17T11:00:07.187Z,101189.56
2022-12-17T11:02:38.890Z,101186.75
2022-12-17T11:05:11.177Z,101190.72
2022-12-17T11:07:46.701Z,101179.53
2022-12-17T11:10:10.331Z,101184.66
2022-12-17T11:12:33.503Z,101176.56
2022-12-17T11:15:10.579Z,101187.63
2022-12-17T11:17:37.959Z,101177.91
2022-12-17T11:20:17.805Z,101177.72
2022-12-17T11:22:53.656Z,101189.13
2022-12-17T11:25:38.088Z,101186.59
2022-12-17T11:28:09.832Z,101185.09
2022-12-17T11:30:35.493Z,101182.47
2022-12-17T11:34:00.574Z,101200.78
2022-12-17T11:36:42.188Z,101195.00
2022-12-17T11:39:23.907Z,101197.78
2022-12-17T11:42:12.630Z,101207.66
2022-12-17T11:45:11.747Z,101204.44
2022-12-17T11:48:06.381Z,101205.75
2022-12-17T11:51:05.521Z,101213.44
2022-12-17T11:54:04.799Z,101213.41
2022-12-17T11:56:40.821Z,101225.09
2022-12-17T11:59:05.971Z,101231.88
2022-12-17T12:01:44.533Z,101229.38
2022-12-17T12:04:18.672Z,101233.19
2022-12-17T12:06:54.652Z,101236.16
2022-12-17T12:10:03.992Z,101230.41
2022-12-17T12:12:54.446Z,101237.75
2022-12-17T12:15:27.436Z,101237.03
2022-12-17T12:18:07.544Z,101242.66
2022-12-17T12:20:59.280Z,101244.28
2022-12-17T12:23:48.458Z,101239.69
2022-12-17T12:26:28.282Z,101241.19
2022-12-17T12:29:27.344Z,101247.34
2022-12-17T12:32:19.645Z,101249.16
2022-12-17T12:34:58.678Z,101258.88
2022-12-17T12:37:22.463Z,101260.06
2022-12-17T12:40:06.305Z,101263.00
2022-12-17T12:42:59.701Z,101269.78
2022-12-17T12:45:39.807Z,101271.13
2022-12-17T12:48:07.255Z,101277.28
2022-12-17T12:50:42.715Z,101275.66
2022-12-17T12:53:05.068Z,101268.91
2022-12-17T12:55:52.943Z,101275.38
2022-12-17T12:58:17.947Z,101276.28
2022-12-17T13:00:56.238Z,101274.50
2022-12-17T13:03:46.700Z,101276.69
2022-12-17T13:05:49.772Z,101275.66
2022-12-17T13:08:24.657Z,101272.13
2022-12-17T13:10:35.809Z,101272.25
2022-12-17T13:12:46.342Z,101279.19
2022-12-17T13:15:00.537Z,101281.69
2022-12-17T13:17:16.280Z,101291.31
2022-12-17T13:19:20.341Z,101281.56
2022-12-17T13:21:29.835Z,101286.59
2022-12-17T13:23:37.603Z,101295.16
2022-12-17T13:25:39.885Z,101285.13
2022-12-17T13:27:43.535Z,101288.06
2022-12-17T13:29:47.605Z,101289.81
2022-12-17T13:32:03.387Z,101292.75
2022-12-17T13:34:40.130Z,101289.81
2022-12-17T13:37:01.930Z,101287.75
2022-12-17T13:39:35.227Z,101287.75
2022-12-17T13:41:39.061Z,101292.78
2022-12-17T13:44:00.012Z,101296.44
2022-12-17T13:46:26.570Z,101304.28
2022-12-17T13:48:30.673Z,101308.69
2022-12-17T13:50:34.706Z,101296.88
2022-12-17T13:52:48.716Z,101308.09
2022-12-17T13:55:08.835Z,101306.03
2022-12-17T13:57:24.215Z,101309.88
2022-12-17T13:59:30.091Z,101319.91
2022-12-17T14:01:44.740Z,101314.88
2022-12-17T14:04:06.177Z,101310.44
2022-12-17T14:06:12.343Z,101307.78
2022-12-17T14:08:27.969Z,101322.66
2022-12-17T14:10:38.624Z,101320.75
2022-12-17T14:13:19.240Z,101330.94
2022-12-17T14:15:30.262Z,101328.13
2022-12-17T14:17:46.329Z,101336.72
2022-12-17T14:20:12.079Z,101338.81
2022-12-17T14:22:38.815Z,101337.03
2022-12-17T14:24:40.860Z,101341.16
2022-12-17T14:27:01.186Z,101355.31
2022-12-17T14:29:13.420Z,101359.31
2022-12-17T14:31:26.552Z,101359.44
2022-12-17T14:33:33.626Z,101365.78
2022-12-17T14:35:40.528Z,101370.47
2022-12-17T14:37:51.948Z,101375.63
2022-12-17T14:40:06.789Z,101375.50
2022-12-17T14:42:26.155Z,101382.97
2022-12-17T14:44:31.968Z,101382.38
2022-12-17T14:46:35.208Z,101392.72
2022-12-17T14:49:17.060Z,101390.38
2022-12-17T14:51:42.845Z,101392.28
2022-12-17T14:53:44.859Z,101391.53
2022-12-17T14:56:00.085Z,101397.88
2022-12-17T14:58:21.300Z,101406.25
2022-12-17T15:00:30.268Z,101409.03
2022-12-17T15:02:34.679Z,101407.75
2022-12-17T15:04:39.427Z,101410.66
2022-12-17T15:06:49.789Z,101407.09
2022-12-17T15:08:53.768Z,101414.16
2022-12-17T15:10:58.509Z,101417.97
2022-12-17T15:13:01.766Z,101420.91
2022-12-17T15:15:04.479Z,101420.06
2022-12-17T15:17:07.700Z,101428.13
2022-12-17T15:19:09.735Z,101427.13
2022-12-17T15:21:13.119Z,101431.56
2022-12-17T15:23:21.011Z,101438.03
2022-12-17T15:25:23.083Z,101440.63
2022-12-17T15:27:26.184Z,101442.09
2022-12-17T15:29:29.093Z,101441.78
2022-12-17T15:31:36.937Z,101443.81
2022-12-17T15:33:45.157Z,101449.38
2022-12-17T15:35:51.266Z,101451.16
2022-12-17T15:37:53.435Z,101447.88
2022-12-17T15:39:59.629Z,101456.69
2022-12-17T15:42:20.206Z,101455.97
2022-12-17T15:44:22.204Z,101458.88
2022-12-17T15:46:30.498Z,101465.97
2022-12-17T15:48:36.002Z,101464.03
2022-12-17T15:50:40.476Z,101462.25
2022-12-17T15:52:43.507Z,101463.81
2022-12-17T15:54:46.666Z,101468.06
2022-12-17T15:56:58.787Z,101470.66
2022-12-17T15:59:02.242Z,101476.03
2022-12-17T16:01:07.695Z,101481.59
2022-12-17T16:03:10.054Z,101477.47
2022-12-17T16:05:18.648Z,101475.38
2022-12-17T16:07:20.759Z,101477.16
2022-12-17T16:09:27.290Z,101472.69
2022-12-17T16:11:29.397Z,101475.38
2022-12-17T16:13:31.515Z,101477.31
2022-12-17T16:15:37.162Z,101473.75
2022-12-17T16:17:40.387Z,101474.09
2022-12-17T16:19:49.468Z,101475.13
2022-12-17T16:21:56.550Z,101471.09
2022-12-17T16:24:11.210Z,101479.19
2022-12-17T16:26:15.381Z,101475.84
2022-12-17T16:28:27.829Z,101488.47
2022-12-17T16:30:30.436Z,101487.09
2022-12-17T16:32:36.980Z,101492.41
2022-12-17T16:34:45.536Z,101495.66
2022-12-17T16:36:50.151Z,101496.63
2022-12-17T16:38:55.209Z,101504.03
2022-12-17T16:41:02.949Z,101501.06
2022-12-17T16:43:09.291Z,101507.50
2022-12-17T16:45:11.556Z,101515.03
2022-12-17T16:47:14.050Z,101508.75
2022-12-17T16:49:19.425Z,101505.88
2022-12-17T16:51:29.181Z,101509.69
2022-12-17T16:53:33.666Z,101517.91
2022-12-17T16:55:48.166Z,101525.03
2022-12-17T16:57:50.413Z,101532.94
2022-12-17T16:59:55.705Z,101523.66
2022-12-17T17:01:58.041Z,101524.31
2022-12-17T17:04:08.036Z,101535.34
2022-12-17T17:06:15.165Z,101529.97
2022-12-17T17:08:17.105Z,101542.16
2022-12-17T17:10:27.828Z,101544.28
2022-12-17T17:12:37.885Z,101548.78
2022-12-17T17:14:40.617Z,101550.72
2022-12-17T17:16:49.496Z,101548.94
2022-12-17T17:18:55.659Z,101553.94
2022-12-17T17:21:39.080Z,101556.03
2022-12-17T17:23:44.258Z,101563.94
2022-12-17T17:25:58.776Z,101564.28
2022-12-17T17:28:13.937Z,101566.38
2022-12-17T17:30:23.850Z,101568.88
2022-12-17T17:32:26.396Z,101564.69
2022-12-17T17:34:31.712Z,101572.03
2022-12-17T17:36:33.844Z,101572.81
2022-12-17T17:38:41.102Z,101577.44
2022-12-17T17:40:43.318Z,101577.50
2022-12-17T17:42:51.553Z,101575.31
2022-12-17T17:44:55.422Z,101572.50
2022-12-17T17:47:16.587Z,101566.06
2022-12-17T17:49:26.933Z,101573.25
2022-12-17T17:52:07.792Z,101573.06
2022-12-17T17:53:57.019Z,101562.88
2022-12-17T17:56:20.055Z,101575.25
2022-12-17T17:58:22.390Z,101580.03
2022-12-17T18:00:24.326Z,101582.13
2022-12-17T18:02:27.666Z,101590.53
2022-12-17T18:04:33.801Z,101586.97
2022-12-17T18:06:57.533Z,101585.03
2022-12-17T18:09:05.246Z,101595.69
2022-12-17T18:11:12.276Z,101599.97
2022-12-17T18:13:34.123Z,101602.31
2022-12-17T18:15:40.368Z,101597.31
2022-12-17T18:17:42.960Z,101602.47
2022-12-17T18:19:45.033Z,101612.41
2022-12-17T18:21:48.484Z,101606.91
2022-12-17T18:24:00.039Z,101621.94
2022-12-17T18:26:23.069Z,101628.84
2022-12-17T18:28:25.246Z,101624.59
2022-12-17T18:30:28.787Z,101630.84
2022-12-17T18:32:32.120Z,101628.91
2022-12-17T18:34:36.366Z,101632.84
2022-12-17T18:36:40.288Z,101633.72
2022-12-17T18:38:45.293Z,101637.84
2022-12-17T18:40:47.336Z,101639.28
2022-12-17T18:43:08.896Z,101651.25
2022-12-17T18:45:18.076Z,101651.19
2022-12-17T18:47:23.351Z,101648.53
2022-12-17T18:49:26.847Z,101651.19
2022-12-17T18:51:29.948Z,101655.31
2022-12-17T18:53:34.199Z,101661.38
2022-12-17T18:55:40.906Z,101663.88
2022-12-17T18:57:49.952Z,101653.31
2022-12-17T18:59:57.176Z,101657.75
2022-12-17T19:02:00.479Z,101661.00
2022-12-17T19:04:09.183Z,101663.81
2022-12-17T19:06:11.731Z,101670.56
2022-12-17T19:08:20.341Z,101661.63
2022-12-17T19:10:26.990Z,101662.69
2022-12-17T19:12:30.589Z,101665.19
2022-12-17T19:14:33.370Z,101667.88
2022-12-17T19:16:40.659Z,101671.44
2022-12-17T19:19:01.745Z,101673.03
2022-12-17T19:21:07.287Z,101670.50
2022-12-17T19:23:09.359Z,101676.75
2022-12-17T19:25:11.864Z,101679.97
2022-12-17T19:27:25.723Z,101686.03
2022-12-17T19:29:28.769Z,101688.38
2022-12-17T19:31:32.454Z,101682.66
2022-12-17T19:33:36.682Z,101676.94
2022-12-17T19:35:38.883Z,101681.53
2022-12-17T19:37:42.092Z,101684.75
2022-12-17T19:39:46.048Z,101685.66
2022-12-17T19:41:50.266Z,101688.47
2022-12-17T19:43:59.603Z,101690.44
2022-12-17T19:46:09.078Z,101696.47
2022-12-17T19:48:14.831Z,101700.03
2022-12-17T19:50:17.774Z,101695.53
2022-12-17T19:52:20.109Z,101704.34
2022-12-17T19:54:24.220Z,101709.06
2022-12-17T19:56:28.580Z,101718.03
2022-12-17T19:58:30.715Z,101716.25
2022-12-17T20:00:36.121Z,101710.91
2022-12-17T20:02:38.423Z,101710.81
2022-12-17T20:04:42.108Z,101712.78
2022-12-17T20:06:46.763Z,101710.41
2022-12-17T20:08:49.250Z,101713.66
2022-12-17T20:10:53.940Z,101715.41
2022-12-17T20:12:56.012Z,101708.81
2022-12-17T20:14:58.074Z,101715.97
2022-12-17T20:17:01.722Z,101719.38
2022-12-17T20:19:06.376Z,101719.72
2022-12-17T20:21:11.575Z,101724.88
2022-12-17T20:23:14.002Z,101738.63
2022-12-17T20:25:16.256Z,101728.22
2022-12-17T20:27:18.424Z,101729.66
2022-12-17T20:29:24.155Z,101738.94
2022-12-17T20:31:28.514Z,101739.69
2022-12-17T20:33:31.497Z,101748.81
2022-12-17T20:35:33.632Z,101754.72
2022-12-17T20:37:36.366Z,101752.38
2022-12-17T20:39:38.989Z,101758.09
2022-12-17T20:41:43.045Z,101764.72
2022-12-17T20:43:48.575Z,101760.59
2022-12-17T20:45:52.248Z,101762.22
2022-12-17T20:47:55.306Z,101779.44
2022-12-17T20:49:57.678Z,101769.41
2022-12-17T20:51:59.833Z,101766.19
2022-12-17T20:54:04.568Z,101769.41
2022-12-17T20:56:19.048Z,101768.88
2022-12-17T20:58:21.346Z,101774.56
2022-12-17T21:00:25.016Z,101785.66
2022-12-17T21:02:27.525Z,101784.59
2022-12-17T21:04:29.949Z,101791.41
2022-12-17T21:06:40.290Z,101791.53
2022-12-17T21:08:50.165Z,101789.47
2022-12-17T21:10:56.994Z,101805.53
2022-12-17T21:13:18.311Z,101805.38
2022-12-17T21:15:20.524Z,101808.19
2022-12-17T21:17:22.673Z,101806.81
2022-12-17T21:19:28.887Z,101809.50
2022-12-17T21:21:34.611Z,101812.31
2022-12-17T21:23:38.253Z,101818.03
2022-12-17T21:25:42.477Z,101808.69
2022-12-17T21:27:44.933Z,101805.38
2022-12-17T21:29:47.032Z,101818.03
2022-12-17T21:31:50.817Z,101825.41
2022-12-17T21:33:55.133Z,101823.63
2022-12-17T21:36:02.211Z,101827.19
2022-12-17T21:38:13.824Z,101829.69
2022-12-17T21:40:15.859Z,101828.75
2022-12-17T21:42:42.415Z,101836.88
2022-12-17T21:44:44.314Z,101823.59
2022-12-17T21:46:56.542Z,101830.38
2022-12-17T21:49:02.260Z,101818.19
2022-12-17T21:51:07.216Z,101820.03
2022-12-17T21:53:14.760Z,101821.91
2022-12-17T21:55:17.362Z,101821.28
2022-12-17T21:57:52.301Z,101822.41
2022-12-17T22:00:23.580Z,101834.38
2022-12-17T22:02:40.343Z,101827.41
2022-12-17T22:04:55.551Z,101830.41
2022-12-17T22:07:17.125Z,101835.25
2022-12-17T22:09:52.726Z,101839.53
2022-12-17T22:12:13.429Z,101839.69
2022-12-17T22:14:20.998Z,101844.88
2022-12-17T22:16:26.840Z,101851.34
2022-12-17T22:18:40.876Z,101857.91
2022-12-17T22:21:07.698Z,101862.91
2022-12-17T22:23:13.506Z,101859.06
2022-12-17T22:30:36.067Z,101864.78
2022-12-17T22:33:03.955Z,101872.66
2022-12-17T22:36:59.731Z,101875.91
2022-12-17T22:41:53.405Z,101888.03
2022-12-17T22:44:38.322Z,101884.81
2022-12-17T22:44:45.083Z,101895.91
2022-12-17T22:46:05.566Z,101897.28
2022-12-17T22:48:35.854Z,101901.75
2022-12-17T22:51:02.332Z,101902.63
2022-12-17T22:53:12.592Z,101906.50
2022-12-17T22:55:24.318Z,101904.00
2022-12-17T22:57:35.687Z,101907.44
2022-12-17T22:59:51.280Z,101902.16
2022-12-17T23:01:55.258Z,101904.28
2022-12-17T23:04:06.826Z,101890.31
2022-12-17T23:06:16.246Z,101892.25
2022-12-17T23:08:18.119Z,101883.84
2022-12-17T23:10:20.874Z,101884.88
2022-12-17T23:12:41.137Z,101886.09
2022-12-17T23:14:50.079Z,101885.78
2022-12-17T23:16:57.836Z,101889.88
2022-12-17T23:19:05.279Z,101890.78
2022-12-17T23:21:28.697Z,101895.81
2022-12-17T23:23:38.467Z,101896.13
2022-12-17T23:25:42.796Z,101894.31
2022-12-17T23:27:53.573Z,101893.13
2022-12-17T23:29:55.571Z,101901.72
2022-12-17T23:32:03.327Z,101898.47
2022-12-17T23:34:06.239Z,101908.84
2022-12-17T23:36:15.926Z,101900.56
2022-12-17T23:38:17.992Z,101901.31
2022-12-17T23:40:20.003Z,101909.88
2022-12-17T23:42:24.969Z,101918.31
2022-12-17T23:44:27.966Z,101914.75
2022-12-17T23:46:31.006Z,101933.00
2022-12-17T23:48:40.721Z,101937.44
2022-12-17T23:50:49.535Z,101940.13
2022-12-17T23:52:55.757Z,101941.03
2022-12-17T23:55:19.688Z,101939.56
2022-12-17T23:57:28.342Z,101944.59
2022-12-17T23:59:30.307Z,101944.59
